sensor_id;sensor_type;location;lat;lon;timestamp;P1;durP1;ratioP1;P2;durP2;ratioP2
9852;SDS011;4965;43.238;27.864;2022-11-21T00:00:47;11.00;;;4.53;;
9852;SDS011;4965;43.238;27.864;2022-11-21T00:03:15;10.35;;;4.65;;
9852;SDS011;4965;43.238;27.864;2022-11-21T00:05:43;5.78;;;4.70;;
9852;SDS011;4965;43.238;27.864;2022-11-21T00:08:12;13.43;;;4.60;;
9852;SDS011;4965;43.238;27.864;2022-11-21T00:10:41;10.25;;;4.43;;
9852;SDS011;4965;43.238;27.864;2022-11-21T00:13:10;6.85;;;4.80;;
9852;SDS011;4965;43.238;27.864;2022-11-21T00:15:39;13.43;;;5.53;;
9852;SDS011;4965;43.238;27.864;2022-11-21T00:18:05;8.52;;;4.95;;
9852;SDS011;4965;43.238;27.864;2022-11-21T00:20:34;9.63;;;5.13;;
9852;SDS011;4965;43.238;27.864;2022-11-21T00:23:26;9.10;;;5.50;;
9852;SDS011;4965;43.238;27.864;2022-11-21T00:25:55;11.63;;;5.30;;
9852;SDS011;4965;43.238;27.864;2022-11-21T00:28:22;9.55;;;4.90;;
9852;SDS011;4965;43.238;27.864;2022-11-21T00:30:49;11.43;;;5.30;;
9852;SDS011;4965;43.238;27.864;2022-11-21T00:33:16;12.23;;;5.15;;
9852;SDS011;4965;43.238;27.864;2022-11-21T00:35:43;16.00;;;6.30;;
9852;SDS011;4965;43.238;27.864;2022-11-21T00:38:10;9.57;;;5.55;;
9852;SDS011;4965;43.238;27.864;2022-11-21T00:40:37;15.07;;;5.53;;
9852;SDS011;4965;43.238;27.864;2022-11-21T00:43:05;11.77;;;5.43;;
9852;SDS011;4965;43.238;27.864;2022-11-21T00:45:32;16.50;;;5.68;;
9852;SDS011;4965;43.238;27.864;2022-11-21T00:47:59;10.02;;;5.57;;
9852;SDS011;4965;43.238;27.864;2022-11-21T00:50:27;22.30;;;6.97;;
9852;SDS011;4965;43.238;27.864;2022-11-21T00:52:54;17.58;;;6.45;;
9852;SDS011;4965;43.238;27.864;2022-11-21T00:55:21;11.23;;;5.75;;
9852;SDS011;4965;43.238;27.864;2022-11-21T00:57:48;16.40;;;5.80;;
9852;SDS011;4965;43.238;27.864;2022-11-21T01:00:17;13.50;;;5.90;;
9852;SDS011;4965;43.238;27.864;2022-11-21T01:02:45;18.10;;;6.30;;
9852;SDS011;4965;43.238;27.864;2022-11-21T01:05:12;16.67;;;6.50;;
9852;SDS011;4965;43.238;27.864;2022-11-21T01:07:39;14.77;;;5.72;;
9852;SDS011;4965;43.238;27.864;2022-11-21T01:10:06;26.25;;;7.03;;
9852;SDS011;4965;43.238;27.864;2022-11-21T01:12:33;21.98;;;5.68;;
9852;SDS011;4965;43.238;27.864;2022-11-21T01:15:00;21.05;;;5.43;;
9852;SDS011;4965;43.238;27.864;2022-11-21T01:17:29;13.40;;;5.22;;
9852;SDS011;4965;43.238;27.864;2022-11-21T01:19:57;19.33;;;6.32;;
9852;SDS011;4965;43.238;27.864;2022-11-21T01:22:24;22.67;;;6.43;;
9852;SDS011;4965;43.238;27.864;2022-11-21T01:24:52;16.73;;;6.20;;
9852;SDS011;4965;43.238;27.864;2022-11-21T01:27:20;19.25;;;6.28;;
9852;SDS011;4965;43.238;27.864;2022-11-21T01:29:47;15.40;;;7.00;;
9852;SDS011;4965;43.238;27.864;2022-11-21T01:32:13;17.67;;;6.90;;
9852;SDS011;4965;43.238;27.864;2022-11-21T01:34:42;28.33;;;7.05;;
9852;SDS011;4965;43.238;27.864;2022-11-21T01:37:09;17.95;;;6.78;;
9852;SDS011;4965;43.238;27.864;2022-11-21T01:39:36;23.63;;;7.22;;
9852;SDS011;4965;43.238;27.864;2022-11-21T01:42:03;18.88;;;6.80;;
9852;SDS011;4965;43.238;27.864;2022-11-21T01:44:44;19.10;;;6.97;;
9852;SDS011;4965;43.238;27.864;2022-11-21T01:47:13;22.63;;;7.10;;
9852;SDS011;4965;43.238;27.864;2022-11-21T01:49:42;19.92;;;7.38;;
9852;SDS011;4965;43.238;27.864;2022-11-21T01:52:11;18.00;;;7.68;;
9852;SDS011;4965;43.238;27.864;2022-11-21T01:54:43;25.38;;;7.53;;
9852;SDS011;4965;43.238;27.864;2022-11-21T01:57:16;30.23;;;7.80;;
9852;SDS011;4965;43.238;27.864;2022-11-21T01:59:46;35.30;;;8.98;;
9852;SDS011;4965;43.238;27.864;2022-11-21T02:02:16;28.33;;;8.35;;
9852;SDS011;4965;43.238;27.864;2022-11-21T02:04:48;26.98;;;7.65;;
9852;SDS011;4965;43.238;27.864;2022-11-21T02:07:17;30.65;;;8.35;;
9852;SDS011;4965;43.238;27.864;2022-11-21T02:09:48;43.67;;;8.10;;
9852;SDS011;4965;43.238;27.864;2022-11-21T02:12:20;21.65;;;7.90;;
9852;SDS011;4965;43.238;27.864;2022-11-21T02:14:49;18.10;;;7.22;;
9852;SDS011;4965;43.238;27.864;2022-11-21T02:17:18;27.23;;;7.13;;
9852;SDS011;4965;43.238;27.864;2022-11-21T02:19:49;24.90;;;7.88;;
9852;SDS011;4965;43.238;27.864;2022-11-21T02:22:22;24.35;;;7.28;;
9852;SDS011;4965;43.238;27.864;2022-11-21T02:25:07;23.25;;;7.15;;
9852;SDS011;4965;43.238;27.864;2022-11-21T02:27:37;24.92;;;6.72;;
9852;SDS011;4965;43.238;27.864;2022-11-21T02:30:04;28.10;;;7.68;;
9852;SDS011;4965;43.238;27.864;2022-11-21T02:32:34;31.73;;;8.00;;
9852;SDS011;4965;43.238;27.864;2022-11-21T02:35:04;27.00;;;7.15;;
9852;SDS011;4965;43.238;27.864;2022-11-21T02:37:32;28.17;;;6.35;;
9852;SDS011;4965;43.238;27.864;2022-11-21T02:40:02;26.30;;;6.50;;
9852;SDS011;4965;43.238;27.864;2022-11-21T02:42:39;23.92;;;6.00;;
9852;SDS011;4965;43.238;27.864;2022-11-21T02:45:13;35.95;;;6.43;;
9852;SDS011;4965;43.238;27.864;2022-11-21T02:47:44;22.75;;;6.78;;
9852;SDS011;4965;43.238;27.864;2022-11-21T02:50:15;28.17;;;6.97;;
9852;SDS011;4965;43.238;27.864;2022-11-21T02:52:51;32.58;;;6.25;;
9852;SDS011;4965;43.238;27.864;2022-11-21T02:55:19;31.35;;;6.47;;
9852;SDS011;4965;43.238;27.864;2022-11-21T02:57:48;30.02;;;6.25;;
9852;SDS011;4965;43.238;27.864;2022-11-21T03:00:15;27.88;;;6.88;;
9852;SDS011;4965;43.238;27.864;2022-11-21T03:02:42;30.88;;;7.03;;
9852;SDS011;4965;43.238;27.864;2022-11-21T03:05:10;23.67;;;5.45;;
9852;SDS011;4965;43.238;27.864;2022-11-21T03:07:39;33.90;;;6.43;;
9852;SDS011;4965;43.238;27.864;2022-11-21T03:10:07;42.30;;;7.65;;
9852;SDS011;4965;43.238;27.864;2022-11-21T03:12:34;35.92;;;7.15;;
9852;SDS011;4965;43.238;27.864;2022-11-21T03:15:03;42.28;;;8.27;;
9852;SDS011;4965;43.238;27.864;2022-11-21T03:17:31;29.27;;;7.57;;
9852;SDS011;4965;43.238;27.864;2022-11-21T03:19:58;40.88;;;6.90;;
9852;SDS011;4965;43.238;27.864;2022-11-21T03:22:25;30.30;;;7.38;;
9852;SDS011;4965;43.238;27.864;2022-11-21T03:24:55;33.38;;;7.90;;
9852;SDS011;4965;43.238;27.864;2022-11-21T03:30:09;33.17;;;7.15;;
9852;SDS011;4965;43.238;27.864;2022-11-21T03:32:36;38.60;;;8.45;;
9852;SDS011;4965;43.238;27.864;2022-11-21T03:35:04;29.02;;;7.50;;
9852;SDS011;4965;43.238;27.864;2022-11-21T03:37:31;33.75;;;7.65;;
9852;SDS011;4965;43.238;27.864;2022-11-21T03:39:58;46.92;;;8.55;;
9852;SDS011;4965;43.238;27.864;2022-11-21T03:42:27;43.20;;;7.80;;
9852;SDS011;4965;43.238;27.864;2022-11-21T03:44:53;38.10;;;8.20;;
9852;SDS011;4965;43.238;27.864;2022-11-21T03:47:25;28.13;;;6.68;;
9852;SDS011;4965;43.238;27.864;2022-11-21T03:49:52;44.75;;;7.88;;
9852;SDS011;4965;43.238;27.864;2022-11-21T03:52:19;51.40;;;7.78;;
9852;SDS011;4965;43.238;27.864;2022-11-21T03:54:46;38.45;;;8.35;;
9852;SDS011;4965;43.238;27.864;2022-11-21T03:57:13;32.78;;;7.95;;
9852;SDS011;4965;43.238;27.864;2022-11-21T03:59:40;37.45;;;8.38;;
9852;SDS011;4965;43.238;27.864;2022-11-21T04:02:07;44.17;;;9.13;;
9852;SDS011;4965;43.238;27.864;2022-11-21T04:04:35;37.30;;;7.88;;
9852;SDS011;4965;43.238;27.864;2022-11-21T04:07:02;47.72;;;8.38;;
9852;SDS011;4965;43.238;27.864;2022-11-21T04:09:29;44.22;;;7.70;;
9852;SDS011;4965;43.238;27.864;2022-11-21T04:11:56;38.88;;;8.13;;
9852;SDS011;4965;43.238;27.864;2022-11-21T04:14:23;42.40;;;9.00;;
9852;SDS011;4965;43.238;27.864;2022-11-21T04:16:50;32.85;;;7.72;;
9852;SDS011;4965;43.238;27.864;2022-11-21T04:19:17;27.60;;;7.10;;
9852;SDS011;4965;43.238;27.864;2022-11-21T04:21:45;48.55;;;8.05;;
9852;SDS011;4965;43.238;27.864;2022-11-21T04:24:14;38.15;;;7.82;;
9852;SDS011;4965;43.238;27.864;2022-11-21T04:26:40;33.40;;;7.53;;
9852;SDS011;4965;43.238;27.864;2022-11-21T04:29:07;40.97;;;7.60;;
9852;SDS011;4965;43.238;27.864;2022-11-21T04:31:34;52.13;;;8.15;;
9852;SDS011;4965;43.238;27.864;2022-11-21T04:34:01;38.00;;;7.60;;
9852;SDS011;4965;43.238;27.864;2022-11-21T04:36:28;39.47;;;8.35;;
9852;SDS011;4965;43.238;27.864;2022-11-21T04:38:57;44.03;;;8.27;;
9852;SDS011;4965;43.238;27.864;2022-11-21T04:41:24;31.80;;;8.07;;
9852;SDS011;4965;43.238;27.864;2022-11-21T04:44:04;46.97;;;8.30;;
9852;SDS011;4965;43.238;27.864;2022-11-21T04:46:31;47.53;;;8.20;;
9852;SDS011;4965;43.238;27.864;2022-11-21T04:48:58;40.03;;;8.55;;
9852;SDS011;4965;43.238;27.864;2022-11-21T04:51:25;49.17;;;9.27;;
9852;SDS011;4965;43.238;27.864;2022-11-21T04:53:52;34.85;;;7.90;;
9852;SDS011;4965;43.238;27.864;2022-11-21T04:56:20;46.45;;;9.05;;
9852;SDS011;4965;43.238;27.864;2022-11-21T04:58:50;48.30;;;8.25;;
9852;SDS011;4965;43.238;27.864;2022-11-21T05:01:17;37.40;;;7.50;;
9852;SDS011;4965;43.238;27.864;2022-11-21T05:03:44;37.83;;;8.27;;
9852;SDS011;4965;43.238;27.864;2022-11-21T05:06:11;62.47;;;8.40;;
9852;SDS011;4965;43.238;27.864;2022-11-21T05:08:38;52.80;;;8.80;;
9852;SDS011;4965;43.238;27.864;2022-11-21T05:11:04;50.40;;;7.65;;
9852;SDS011;4965;43.238;27.864;2022-11-21T05:13:52;40.33;;;7.65;;
9852;SDS011;4965;43.238;27.864;2022-11-21T05:16:20;49.13;;;8.48;;
9852;SDS011;4965;43.238;27.864;2022-11-21T05:18:47;45.47;;;8.60;;
9852;SDS011;4965;43.238;27.864;2022-11-21T05:21:14;49.72;;;7.85;;
9852;SDS011;4965;43.238;27.864;2022-11-21T05:23:41;47.17;;;8.00;;
9852;SDS011;4965;43.238;27.864;2022-11-21T05:26:08;50.97;;;9.55;;
9852;SDS011;4965;43.238;27.864;2022-11-21T05:28:35;51.58;;;8.10;;
9852;SDS011;4965;43.238;27.864;2022-11-21T05:31:03;45.38;;;8.02;;
9852;SDS011;4965;43.238;27.864;2022-11-21T05:33:30;43.95;;;8.32;;
9852;SDS011;4965;43.238;27.864;2022-11-21T05:35:57;39.20;;;8.70;;
9852;SDS011;4965;43.238;27.864;2022-11-21T05:38:24;45.78;;;8.45;;
9852;SDS011;4965;43.238;27.864;2022-11-21T05:40:51;38.30;;;8.07;;
9852;SDS011;4965;43.238;27.864;2022-11-21T05:43:18;41.38;;;7.90;;
9852;SDS011;4965;43.238;27.864;2022-11-21T05:46:03;42.63;;;8.07;;
9852;SDS011;4965;43.238;27.864;2022-11-21T05:48:30;36.60;;;6.38;;
9852;SDS011;4965;43.238;27.864;2022-11-21T05:50:58;37.53;;;6.82;;
9852;SDS011;4965;43.238;27.864;2022-11-21T05:53:26;42.88;;;6.65;;
9852;SDS011;4965;43.238;27.864;2022-11-21T05:55:53;39.38;;;5.70;;
9852;SDS011;4965;43.238;27.864;2022-11-21T05:58:20;37.97;;;6.93;;
9852;SDS011;4965;43.238;27.864;2022-11-21T06:00:47;35.40;;;7.75;;
9852;SDS011;4965;43.238;27.864;2022-11-21T06:03:15;33.97;;;6.18;;
9852;SDS011;4965;43.238;27.864;2022-11-21T06:06:02;27.70;;;6.35;;
9852;SDS011;4965;43.238;27.864;2022-11-21T06:08:31;25.70;;;5.75;;
9852;SDS011;4965;43.238;27.864;2022-11-21T06:10:59;29.75;;;6.13;;
9852;SDS011;4965;43.238;27.864;2022-11-21T06:13:26;43.75;;;6.55;;
9852;SDS011;4965;43.238;27.864;2022-11-21T06:15:53;37.17;;;6.55;;
9852;SDS011;4965;43.238;27.864;2022-11-21T06:18:26;26.45;;;5.80;;
9852;SDS011;4965;43.238;27.864;2022-11-21T06:20:59;44.85;;;6.82;;
9852;SDS011;4965;43.238;27.864;2022-11-21T06:23:26;42.38;;;6.70;;
9852;SDS011;4965;43.238;27.864;2022-11-21T06:25:55;31.90;;;6.10;;
9852;SDS011;4965;43.238;27.864;2022-11-21T06:28:23;32.05;;;7.20;;
9852;SDS011;4965;43.238;27.864;2022-11-21T06:30:50;38.08;;;6.63;;
9852;SDS011;4965;43.238;27.864;2022-11-21T06:33:17;45.05;;;7.65;;
9852;SDS011;4965;43.238;27.864;2022-11-21T06:35:46;39.25;;;7.22;;
9852;SDS011;4965;43.238;27.864;2022-11-21T06:38:13;37.88;;;7.32;;
9852;SDS011;4965;43.238;27.864;2022-11-21T06:40:42;49.58;;;7.78;;
9852;SDS011;4965;43.238;27.864;2022-11-21T06:43:10;41.40;;;6.82;;
9852;SDS011;4965;43.238;27.864;2022-11-21T06:45:37;31.85;;;6.30;;
9852;SDS011;4965;43.238;27.864;2022-11-21T06:48:04;35.92;;;6.50;;
9852;SDS011;4965;43.238;27.864;2022-11-21T06:50:31;29.27;;;6.40;;
9852;SDS011;4965;43.238;27.864;2022-11-21T06:52:59;33.65;;;5.85;;
9852;SDS011;4965;43.238;27.864;2022-11-21T06:55:26;32.33;;;6.60;;
9852;SDS011;4965;43.238;27.864;2022-11-21T06:57:55;24.38;;;5.68;;
9852;SDS011;4965;43.238;27.864;2022-11-21T07:00:23;33.40;;;6.30;;
9852;SDS011;4965;43.238;27.864;2022-11-21T07:02:50;24.63;;;6.45;;
9852;SDS011;4965;43.238;27.864;2022-11-21T07:05:17;28.52;;;5.90;;
9852;SDS011;4965;43.238;27.864;2022-11-21T07:07:44;22.98;;;5.35;;
9852;SDS011;4965;43.238;27.864;2022-11-21T07:10:12;29.35;;;6.63;;
9852;SDS011;4965;43.238;27.864;2022-11-21T07:12:40;31.40;;;5.85;;
9852;SDS011;4965;43.238;27.864;2022-11-21T07:15:24;24.02;;;6.00;;
9852;SDS011;4965;43.238;27.864;2022-11-21T07:17:51;20.58;;;6.47;;
9852;SDS011;4965;43.238;27.864;2022-11-21T07:20:18;32.95;;;6.63;;
9852;SDS011;4965;43.238;27.864;2022-11-21T07:22:45;34.40;;;7.50;;
9852;SDS011;4965;43.238;27.864;2022-11-21T07:25:15;28.17;;;5.82;;
9852;SDS011;4965;43.238;27.864;2022-11-21T07:27:43;29.25;;;5.50;;
9852;SDS011;4965;43.238;27.864;2022-11-21T07:30:10;27.40;;;5.70;;
9852;SDS011;4965;43.238;27.864;2022-11-21T07:32:37;26.33;;;6.05;;
9852;SDS011;4965;43.238;27.864;2022-11-21T07:35:05;28.30;;;5.57;;
9852;SDS011;4965;43.238;27.864;2022-11-21T07:37:36;31.77;;;6.45;;
9852;SDS011;4965;43.238;27.864;2022-11-21T07:40:03;31.63;;;5.88;;
9852;SDS011;4965;43.238;27.864;2022-11-21T07:42:33;23.10;;;5.20;;
9852;SDS011;4965;43.238;27.864;2022-11-21T07:45:00;27.63;;;6.47;;
9852;SDS011;4965;43.238;27.864;2022-11-21T07:47:27;29.80;;;6.03;;
9852;SDS011;4965;43.238;27.864;2022-11-21T07:49:53;22.30;;;5.30;;
9852;SDS011;4965;43.238;27.864;2022-11-21T07:52:20;19.90;;;4.93;;
9852;SDS011;4965;43.238;27.864;2022-11-21T07:54:47;27.05;;;6.55;;
9852;SDS011;4965;43.238;27.864;2022-11-21T07:57:14;27.23;;;5.45;;
9852;SDS011;4965;43.238;27.864;2022-11-21T07:59:43;36.85;;;5.50;;
9852;SDS011;4965;43.238;27.864;2022-11-21T08:02:12;29.67;;;5.40;;
9852;SDS011;4965;43.238;27.864;2022-11-21T08:04:44;26.98;;;5.53;;
9852;SDS011;4965;43.238;27.864;2022-11-21T08:07:11;28.02;;;5.38;;
9852;SDS011;4965;43.238;27.864;2022-11-21T08:09:39;20.25;;;4.97;;
9852;SDS011;4965;43.238;27.864;2022-11-21T08:12:06;26.27;;;5.20;;
9852;SDS011;4965;43.238;27.864;2022-11-21T08:14:34;19.15;;;4.45;;
9852;SDS011;4965;43.238;27.864;2022-11-21T08:17:02;24.63;;;5.43;;
9852;SDS011;4965;43.238;27.864;2022-11-21T08:19:30;25.63;;;5.70;;
9852;SDS011;4965;43.238;27.864;2022-11-21T08:21:56;12.88;;;4.63;;
9852;SDS011;4965;43.238;27.864;2022-11-21T08:24:24;30.25;;;4.40;;
9852;SDS011;4965;43.238;27.864;2022-11-21T08:26:51;20.52;;;5.20;;
9852;SDS011;4965;43.238;27.864;2022-11-21T08:29:18;25.33;;;4.55;;
9852;SDS011;4965;43.238;27.864;2022-11-21T08:31:45;17.10;;;4.63;;
9852;SDS011;4965;43.238;27.864;2022-11-21T08:34:13;21.65;;;3.75;;
9852;SDS011;4965;43.238;27.864;2022-11-21T08:36:40;18.45;;;3.97;;
9852;SDS011;4965;43.238;27.864;2022-11-21T08:39:07;22.23;;;4.25;;
9852;SDS011;4965;43.238;27.864;2022-11-21T08:41:34;18.85;;;4.85;;
9852;SDS011;4965;43.238;27.864;2022-11-21T08:44:18;20.10;;;4.20;;
9852;SDS011;4965;43.238;27.864;2022-11-21T08:46:46;18.15;;;5.07;;
9852;SDS011;4965;43.238;27.864;2022-11-21T08:49:15;16.92;;;4.57;;
9852;SDS011;4965;43.238;27.864;2022-11-21T08:51:42;26.35;;;5.13;;
9852;SDS011;4965;43.238;27.864;2022-11-21T08:54:09;27.92;;;5.20;;
9852;SDS011;4965;43.238;27.864;2022-11-21T08:56:36;32.42;;;5.38;;
9852;SDS011;4965;43.238;27.864;2022-11-21T08:59:02;27.63;;;5.57;;
9852;SDS011;4965;43.238;27.864;2022-11-21T09:01:29;30.63;;;6.32;;
9852;SDS011;4965;43.238;27.864;2022-11-21T09:03:56;30.00;;;5.85;;
9852;SDS011;4965;43.238;27.864;2022-11-21T09:06:25;24.40;;;5.55;;
9852;SDS011;4965;43.238;27.864;2022-11-21T09:08:51;24.55;;;5.80;;
9852;SDS011;4965;43.238;27.864;2022-11-21T09:11:18;30.90;;;5.47;;
9852;SDS011;4965;43.238;27.864;2022-11-21T09:13:45;28.13;;;5.22;;
9852;SDS011;4965;43.238;27.864;2022-11-21T09:16:33;24.85;;;5.72;;
9852;SDS011;4965;43.238;27.864;2022-11-21T09:19:18;31.52;;;5.95;;
9852;SDS011;4965;43.238;27.864;2022-11-21T09:21:47;36.65;;;6.03;;
9852;SDS011;4965;43.238;27.864;2022-11-21T09:24:14;26.33;;;5.65;;
9852;SDS011;4965;43.238;27.864;2022-11-21T09:26:42;37.30;;;6.72;;
9852;SDS011;4965;43.238;27.864;2022-11-21T09:29:10;33.20;;;5.72;;
9852;SDS011;4965;43.238;27.864;2022-11-21T09:31:39;31.63;;;5.63;;
9852;SDS011;4965;43.238;27.864;2022-11-21T09:34:06;27.40;;;6.28;;
9852;SDS011;4965;43.238;27.864;2022-11-21T09:36:33;30.52;;;6.57;;
9852;SDS011;4965;43.238;27.864;2022-11-21T09:39:02;34.00;;;5.72;;
9852;SDS011;4965;43.238;27.864;2022-11-21T09:41:31;29.67;;;5.65;;
9852;SDS011;4965;43.238;27.864;2022-11-21T09:44:34;37.83;;;5.75;;
9852;SDS011;4965;43.238;27.864;2022-11-21T09:47:20;26.73;;;5.88;;
9852;SDS011;4965;43.238;27.864;2022-11-21T09:49:51;28.77;;;5.43;;
9852;SDS011;4965;43.238;27.864;2022-11-21T09:52:24;28.20;;;5.43;;
9852;SDS011;4965;43.238;27.864;2022-11-21T09:54:58;29.17;;;6.15;;
9852;SDS011;4965;43.238;27.864;2022-11-21T09:57:30;29.88;;;6.13;;
9852;SDS011;4965;43.238;27.864;2022-11-21T10:00:00;24.90;;;5.70;;
9852;SDS011;4965;43.238;27.864;2022-11-21T10:02:30;27.52;;;6.25;;
9852;SDS011;4965;43.238;27.864;2022-11-21T10:04:57;27.13;;;5.47;;
9852;SDS011;4965;43.238;27.864;2022-11-21T10:07:25;34.50;;;6.32;;
9852;SDS011;4965;43.238;27.864;2022-11-21T10:10:03;35.70;;;6.32;;
9852;SDS011;4965;43.238;27.864;2022-11-21T10:12:42;29.98;;;5.85;;
9852;SDS011;4965;43.238;27.864;2022-11-21T10:15:23;25.48;;;5.97;;
9852;SDS011;4965;43.238;27.864;2022-11-21T10:18:04;34.35;;;6.20;;
9852;SDS011;4965;43.238;27.864;2022-11-21T10:20:53;29.05;;;6.13;;
9852;SDS011;4965;43.238;27.864;2022-11-21T10:23:44;27.50;;;5.80;;
9852;SDS011;4965;43.238;27.864;2022-11-21T10:26:30;37.30;;;7.40;;
9852;SDS011;4965;43.238;27.864;2022-11-21T10:29:09;31.17;;;6.80;;
9852;SDS011;4965;43.238;27.864;2022-11-21T10:31:51;43.08;;;6.57;;
9852;SDS011;4965;43.238;27.864;2022-11-21T10:34:24;23.67;;;5.50;;
9852;SDS011;4965;43.238;27.864;2022-11-21T10:36:55;47.38;;;5.28;;
9852;SDS011;4965;43.238;27.864;2022-11-21T10:39:26;27.73;;;6.05;;
9852;SDS011;4965;43.238;27.864;2022-11-21T10:42:01;25.15;;;5.88;;
9852;SDS011;4965;43.238;27.864;2022-11-21T10:44:38;32.35;;;5.78;;
9852;SDS011;4965;43.238;27.864;2022-11-21T10:47:23;31.90;;;6.85;;
9852;SDS011;4965;43.238;27.864;2022-11-21T10:49:58;35.17;;;6.90;;
9852;SDS011;4965;43.238;27.864;2022-11-21T10:52:31;36.70;;;7.20;;
9852;SDS011;4965;43.238;27.864;2022-11-21T10:55:08;41.40;;;7.10;;
9852;SDS011;4965;43.238;27.864;2022-11-21T10:57:42;32.42;;;6.35;;
9852;SDS011;4965;43.238;27.864;2022-11-21T11:00:18;29.33;;;6.10;;
9852;SDS011;4965;43.238;27.864;2022-11-21T11:03:01;42.35;;;8.32;;
9852;SDS011;4965;43.238;27.864;2022-11-21T11:05:33;41.25;;;7.30;;
9852;SDS011;4965;43.238;27.864;2022-11-21T11:08:05;33.22;;;6.03;;
9852;SDS011;4965;43.238;27.864;2022-11-21T11:10:34;37.45;;;6.55;;
9852;SDS011;4965;43.238;27.864;2022-11-21T11:13:09;30.35;;;5.93;;
9852;SDS011;4965;43.238;27.864;2022-11-21T11:15:58;34.13;;;6.60;;
9852;SDS011;4965;43.238;27.864;2022-11-21T11:18:31;30.50;;;6.22;;
9852;SDS011;4965;43.238;27.864;2022-11-21T11:21:08;33.75;;;5.63;;
9852;SDS011;4965;43.238;27.864;2022-11-21T11:23:39;38.65;;;6.53;;
9852;SDS011;4965;43.238;27.864;2022-11-21T11:26:17;31.13;;;6.53;;
9852;SDS011;4965;43.238;27.864;2022-11-21T11:28:51;35.60;;;6.35;;
9852;SDS011;4965;43.238;27.864;2022-11-21T11:31:20;35.70;;;6.88;;
9852;SDS011;4965;43.238;27.864;2022-11-21T11:33:53;35.80;;;6.47;;
9852;SDS011;4965;43.238;27.864;2022-11-21T11:36:33;37.47;;;6.28;;
9852;SDS011;4965;43.238;27.864;2022-11-21T11:42:05;32.63;;;6.50;;
9852;SDS011;4965;43.238;27.864;2022-11-21T11:45:38;32.80;;;6.22;;
9852;SDS011;4965;43.238;27.864;2022-11-21T11:48:31;37.58;;;6.38;;
9852;SDS011;4965;43.238;27.864;2022-11-21T11:51:03;38.95;;;7.40;;
9852;SDS011;4965;43.238;27.864;2022-11-21T11:53:39;34.47;;;6.93;;
9852;SDS011;4965;43.238;27.864;2022-11-21T11:56:11;38.67;;;7.45;;
9852;SDS011;4965;43.238;27.864;2022-11-21T11:58:42;32.58;;;6.72;;
9852;SDS011;4965;43.238;27.864;2022-11-21T12:01:15;36.08;;;6.68;;
9852;SDS011;4965;43.238;27.864;2022-11-21T12:03:47;26.35;;;6.00;;
9852;SDS011;4965;43.238;27.864;2022-11-21T12:06:23;45.28;;;8.10;;
9852;SDS011;4965;43.238;27.864;2022-11-21T12:08:52;30.40;;;6.43;;
9852;SDS011;4965;43.238;27.864;2022-11-21T12:11:24;32.75;;;6.72;;
9852;SDS011;4965;43.238;27.864;2022-11-21T12:14:17;41.42;;;6.57;;
9852;SDS011;4965;43.238;27.864;2022-11-21T12:17:18;26.98;;;6.65;;
9852;SDS011;4965;43.238;27.864;2022-11-21T12:19:48;28.50;;;5.95;;
9852;SDS011;4965;43.238;27.864;2022-11-21T12:22:18;27.50;;;5.88;;
9852;SDS011;4965;43.238;27.864;2022-11-21T12:24:45;29.10;;;5.88;;
9852;SDS011;4965;43.238;27.864;2022-11-21T12:27:18;25.10;;;5.30;;
9852;SDS011;4965;43.238;27.864;2022-11-21T12:29:59;15.00;;;5.65;;
9852;SDS011;4965;43.238;27.864;2022-11-21T12:32:52;13.38;;;5.18;;
9852;SDS011;4965;43.238;27.864;2022-11-21T12:35:36;7.93;;;4.88;;
9852;SDS011;4965;43.238;27.864;2022-11-21T12:38:18;11.98;;;5.80;;
9852;SDS011;4965;43.238;27.864;2022-11-21T12:41:00;11.88;;;6.00;;
9852;SDS011;4965;43.238;27.864;2022-11-21T12:43:58;14.57;;;6.55;;
9852;SDS011;4965;43.238;27.864;2022-11-21T12:46:35;8.65;;;7.05;;
9852;SDS011;4965;43.238;27.864;2022-11-21T12:49:12;15.23;;;6.60;;
9852;SDS011;4965;43.238;27.864;2022-11-21T12:52:09;10.65;;;6.38;;
9852;SDS011;4965;43.238;27.864;2022-11-21T12:55:05;7.85;;;6.38;;
9852;SDS011;4965;43.238;27.864;2022-11-21T12:57:43;11.32;;;6.18;;
9852;SDS011;4965;43.238;27.864;2022-11-21T13:00:24;14.27;;;6.78;;
9852;SDS011;4965;43.238;27.864;2022-11-21T13:03:12;9.48;;;5.47;;
9852;SDS011;4965;43.238;27.864;2022-11-21T13:05:59;7.50;;;5.13;;
9852;SDS011;4965;43.238;27.864;2022-11-21T13:08:28;9.98;;;4.90;;
9852;SDS011;4965;43.238;27.864;2022-11-21T13:11:02;6.22;;;3.92;;
9852;SDS011;4965;43.238;27.864;2022-11-21T13:13:55;6.10;;;4.07;;
9852;SDS011;4965;43.238;27.864;2022-11-21T13:16:28;7.18;;;4.05;;
9852;SDS011;4965;43.238;27.864;2022-11-21T13:19:10;7.57;;;3.40;;
9852;SDS011;4965;43.238;27.864;2022-11-21T13:21:46;4.90;;;3.50;;
9852;SDS011;4965;43.238;27.864;2022-11-21T13:27:23;3.58;;;3.28;;
9852;SDS011;4965;43.238;27.864;2022-11-21T13:32:51;6.45;;;2.70;;
9852;SDS011;4965;43.238;27.864;2022-11-21T13:38:26;6.18;;;3.60;;
9852;SDS011;4965;43.238;27.864;2022-11-21T13:40:53;4.05;;;2.65;;
9852;SDS011;4965;43.238;27.864;2022-11-21T13:43:37;2.90;;;2.70;;
9852;SDS011;4965;43.238;27.864;2022-11-21T13:46:05;3.67;;;2.72;;
9852;SDS011;4965;43.238;27.864;2022-11-21T13:51:31;5.95;;;3.90;;
9852;SDS011;4965;43.238;27.864;2022-11-21T13:57:27;8.43;;;3.28;;
9852;SDS011;4965;43.238;27.864;2022-11-21T14:00:33;3.17;;;2.88;;
9852;SDS011;4965;43.238;27.864;2022-11-21T14:06:31;10.52;;;3.17;;
9852;SDS011;4965;43.238;27.864;2022-11-21T14:12:17;6.35;;;2.25;;
9852;SDS011;4965;43.238;27.864;2022-11-21T14:14:50;5.07;;;2.50;;
9852;SDS011;4965;43.238;27.864;2022-11-21T14:17:23;6.80;;;3.95;;
9852;SDS011;4965;43.238;27.864;2022-11-21T14:19:58;9.38;;;5.15;;
9852;SDS011;4965;43.238;27.864;2022-11-21T14:22:30;7.57;;;4.63;;
9852;SDS011;4965;43.238;27.864;2022-11-21T14:25:01;8.38;;;3.97;;
9852;SDS011;4965;43.238;27.864;2022-11-21T14:27:34;5.63;;;4.22;;
9852;SDS011;4965;43.238;27.864;2022-11-21T14:36:04;4.22;;;2.63;;
9852;SDS011;4965;43.238;27.864;2022-11-21T14:38:35;4.75;;;2.70;;
9852;SDS011;4965;43.238;27.864;2022-11-21T14:41:13;8.98;;;2.97;;
9852;SDS011;4965;43.238;27.864;2022-11-21T14:43:59;5.65;;;2.50;;
9852;SDS011;4965;43.238;27.864;2022-11-21T14:46:29;3.28;;;2.40;;
9852;SDS011;4965;43.238;27.864;2022-11-21T14:49:09;4.28;;;2.60;;
9852;SDS011;4965;43.238;27.864;2022-11-21T14:52:00;5.57;;;2.20;;
9852;SDS011;4965;43.238;27.864;2022-11-21T14:54:41;2.35;;;2.15;;
9852;SDS011;4965;43.238;27.864;2022-11-21T14:57:16;4.53;;;2.88;;
9852;SDS011;4965;43.238;27.864;2022-11-21T14:59:46;6.75;;;2.53;;
9852;SDS011;4965;43.238;27.864;2022-11-21T15:02:15;4.13;;;2.25;;
9852;SDS011;4965;43.238;27.864;2022-11-21T15:04:45;3.42;;;2.17;;
9852;SDS011;4965;43.238;27.864;2022-11-21T15:07:17;3.00;;;2.70;;
9852;SDS011;4965;43.238;27.864;2022-11-21T15:10:00;8.45;;;2.47;;
9852;SDS011;4965;43.238;27.864;2022-11-21T15:12:34;6.07;;;2.70;;
9852;SDS011;4965;43.238;27.864;2022-11-21T15:15:32;5.05;;;3.08;;
9852;SDS011;4965;43.238;27.864;2022-11-21T15:18:04;5.90;;;3.42;;
9852;SDS011;4965;43.238;27.864;2022-11-21T15:20:32;9.32;;;3.78;;
9852;SDS011;4965;43.238;27.864;2022-11-21T15:23:00;6.35;;;4.80;;
9852;SDS011;4965;43.238;27.864;2022-11-21T15:25:30;4.10;;;3.70;;
9852;SDS011;4965;43.238;27.864;2022-11-21T15:28:12;9.48;;;7.03;;
9852;SDS011;4965;43.238;27.864;2022-11-21T15:30:41;25.48;;;22.83;;
9852;SDS011;4965;43.238;27.864;2022-11-21T15:33:11;24.02;;;21.60;;
9852;SDS011;4965;43.238;27.864;2022-11-21T15:35:47;21.23;;;19.23;;
9852;SDS011;4965;43.238;27.864;2022-11-21T15:38:20;18.77;;;17.00;;
9852;SDS011;4965;43.238;27.864;2022-11-21T15:43:51;4.63;;;4.22;;
9852;SDS011;4965;43.238;27.864;2022-11-21T15:46:19;7.93;;;4.30;;
9852;SDS011;4965;43.238;27.864;2022-11-21T15:48:49;7.30;;;5.15;;
9852;SDS011;4965;43.238;27.864;2022-11-21T15:51:18;11.13;;;6.50;;
9852;SDS011;4965;43.238;27.864;2022-11-21T15:53:46;6.68;;;4.80;;